createdAt,value
2018-03-22T00:04:10.579Z,101376.37
2018-03-22T00:06:39.673Z,101371.17
2018-03-22T00:09:08.275Z,101365.05
2018-03-22T00:11:36.845Z,101357.19
2018-03-22T00:14:05.333Z,101351.34
2018-03-22T00:16:33.849Z,101341.17
2018-03-22T00:19:02.413Z,101336.30
2018-03-22T00:21:31.114Z,101331.91
2018-03-22T00:23:59.834Z,101327.32
2018-03-22T00:26:28.654Z,101315.43
2018-03-22T00:28:57.280Z,101303.53
2018-03-22T00:31:25.966Z,101295.49
2018-03-22T00:33:54.609Z,101274.77
2018-03-22T00:36:23.504Z,101264.88
2018-03-22T00:38:52.218Z,101257.40
2018-03-22T00:41:21.007Z,101257.08
2018-03-22T00:43:49.773Z,101258.75
2018-03-22T00:46:18.783Z,101251.34
2018-03-22T00:48:47.349Z,101229.77
2018-03-22T00:51:16.095Z,101234.45
2018-03-22T00:53:44.737Z,101223.79
2018-03-22T00:56:13.673Z,101215.33
2018-03-22T00:58:43.359Z,101211.31
2018-03-22T01:01:12.862Z,101199.55
2018-03-22T01:03:41.918Z,101199.78
2018-03-22T01:06:10.502Z,101183.30
2018-03-22T01:08:39.099Z,101176.19
2018-03-22T01:11:07.596Z,101166.55
2018-03-22T01:13:36.176Z,101172.66
2018-03-22T01:16:04.727Z,101161.90
2018-03-22T01:18:33.258Z,101160.42
2018-03-22T01:21:01.820Z,101160.18
2018-03-22T01:23:31.340Z,101154.09
2018-03-22T01:25:59.920Z,101149.76
2018-03-22T01:28:28.603Z,101143.38
2018-03-22T01:30:57.145Z,101136.92
2018-03-22T01:33:25.837Z,101132.67
2018-03-22T01:35:54.620Z,101128.05
2018-03-22T01:38:23.655Z,101117.31
2018-03-22T01:40:52.231Z,101109.27
2018-03-22T01:43:20.849Z,101099.03
2018-03-22T01:45:49.474Z,101080.33
2018-03-22T01:48:18.881Z,101063.20
2018-03-22T01:50:47.541Z,101063.23
2018-03-22T01:53:16.072Z,101047.52
2018-03-22T01:55:44.601Z,101036.72
2018-03-22T01:58:14.676Z,101034.41
2018-03-22T02:00:43.229Z,101031.92
2018-03-22T02:03:11.785Z,101027.33
2018-03-22T02:05:40.512Z,101016.84
2018-03-22T02:08:09.006Z,101002.90
2018-03-22T02:10:37.513Z,100996.69
2018-03-22T02:13:06.079Z,100989.34
2018-03-22T02:15:34.520Z,100978.47
2018-03-22T02:18:03.035Z,100975.50
2018-03-22T02:20:31.732Z,100974.23
2018-03-22T02:23:00.378Z,100975.07
2018-03-22T02:25:28.859Z,100971.23
2018-03-22T02:27:57.439Z,100965.34
2018-03-22T02:30:26.008Z,100962.54
2018-03-22T02:32:54.514Z,100952.37
2018-03-22T02:35:23.286Z,100945.41
2018-03-22T02:37:52.314Z,100942.66
2018-03-22T02:40:20.932Z,100937.90
2018-03-22T02:42:49.521Z,100928.67
2018-03-22T02:45:18.165Z,100914.30
2018-03-22T02:47:46.851Z,100914.27
2018-03-22T02:50:15.756Z,100918.02
2018-03-22T02:52:45.882Z,100916.23
2018-03-22T02:55:15.891Z,100898.64
2018-03-22T02:57:45.596Z,100907.27
2018-03-22T03:00:14.407Z,100875.23
2018-03-22T03:02:43.079Z,100874.15
2018-03-22T03:05:11.775Z,100872.14
2018-03-22T03:07:40.630Z,100855.29
2018-03-22T03:10:09.115Z,100848.67
2018-03-22T03:12:37.895Z,100837.55
2018-03-22T03:15:06.352Z,100828.81
2018-03-22T03:17:34.863Z,100829.02
2018-03-22T03:20:03.554Z,100811.66
2018-03-22T03:22:32.158Z,100813.30
2018-03-22T03:25:00.692Z,100793.70
2018-03-22T03:27:29.423Z,100794.41
2018-03-22T03:29:57.998Z,100789.78
2018-03-22T03:32:26.745Z,100793.92
2018-03-22T03:34:55.354Z,100789.20
2018-03-22T03:37:24.184Z,100793.34
2018-03-22T03:39:52.956Z,100796.83
2018-03-22T03:42:21.748Z,100786.87
2018-03-22T03:44:50.423Z,100772.77
2018-03-22T03:47:19.184Z,100773.84
2018-03-22T03:49:48.107Z,100762.02
2018-03-22T03:52:16.736Z,100761.77
2018-03-22T03:54:45.278Z,100751.08
2018-03-22T03:57:13.861Z,100754.66
2018-03-22T03:59:42.488Z,100746.60
2018-03-22T04:02:10.965Z,100746.88
2018-03-22T04:04:39.501Z,100736.45
2018-03-22T04:07:07.970Z,100725.48
2018-03-22T04:09:36.580Z,100736.58
2018-03-22T04:12:05.110Z,100727.23
2018-03-22T04:14:33.677Z,100715.34
2018-03-22T04:17:02.302Z,100716.60
2018-03-22T04:19:30.822Z,100702.53
2018-03-22T04:21:59.265Z,100700.33
2018-03-22T04:24:27.854Z,100700.30
2018-03-22T04:26:56.442Z,100706.42
2018-03-22T04:29:25.796Z,100687.95
2018-03-22T04:31:54.418Z,100695.42
2018-03-22T04:34:24.871Z,100697.63
2018-03-22T04:36:53.437Z,100682.25
2018-03-22T04:39:21.968Z,100691.74
2018-03-22T04:41:50.595Z,100674.95
2018-03-22T04:44:19.135Z,100683.22
2018-03-22T04:46:47.658Z,100684.05
2018-03-22T04:49:16.449Z,100686.09
2018-03-22T04:51:45.514Z,100661.34
2018-03-22T04:54:14.090Z,100650.74
2018-03-22T04:56:42.816Z,100654.01
2018-03-22T04:59:11.295Z,100658.75
2018-03-22T05:01:39.903Z,100641.28
2018-03-22T05:04:08.503Z,100644.61
2018-03-22T05:06:36.969Z,100651.86
2018-03-22T05:09:05.669Z,100639.96
2018-03-22T05:11:34.188Z,100648.70
2018-03-22T05:14:02.900Z,100652.45
2018-03-22T05:16:31.386Z,100647.90
2018-03-22T05:18:59.900Z,100639.92
2018-03-22T05:21:28.549Z,100646.77
2018-03-22T05:23:58.258Z,100638.52
2018-03-22T05:26:26.898Z,100637.88
2018-03-22T05:28:55.445Z,100643.02
2018-03-22T05:31:24.210Z,100643.27
2018-03-22T05:33:53.311Z,100633.30
2018-03-22T05:36:22.204Z,100629.63
2018-03-22T05:38:50.803Z,100624.98
2018-03-22T05:41:20.450Z,100626.16
2018-03-22T05:43:49.140Z,100619.67
2018-03-22T05:46:17.903Z,100618.49
2018-03-22T05:48:46.852Z,100609.96
2018-03-22T05:51:15.447Z,100608.92
2018-03-22T05:53:44.131Z,100601.20
2018-03-22T05:56:13.334Z,100596.20
2018-03-22T05:58:41.809Z,100595.55
2018-03-22T06:01:10.346Z,100601.11
2018-03-22T06:03:38.977Z,100594.56
2018-03-22T06:06:07.578Z,100589.98
2018-03-22T06:08:36.094Z,100582.84
2018-03-22T06:11:04.904Z,100574.59
2018-03-22T06:13:34.228Z,100582.91
2018-03-22T06:16:02.822Z,100566.44
2018-03-22T06:18:31.452Z,100560.62
2018-03-22T06:21:00.012Z,100564.11
2018-03-22T06:23:28.525Z,100563.14
2018-03-22T06:25:58.148Z,100554.67
2018-03-22T06:28:26.635Z,100556.38
2018-03-22T06:30:55.206Z,100543.48
2018-03-22T06:33:24.032Z,100539.56
2018-03-22T06:35:53.353Z,100542.81
2018-03-22T06:38:23.140Z,100546.31
2018-03-22T06:40:52.077Z,100540.95
2018-03-22T06:43:20.994Z,100540.48
2018-03-22T06:45:49.594Z,100542.47
2018-03-22T06:48:18.773Z,100538.08
2018-03-22T06:50:48.821Z,100541.88
2018-03-22T06:53:17.773Z,100535.98
2018-03-22T06:55:46.616Z,100538.42
2018-03-22T06:58:15.827Z,100531.66
2018-03-22T07:00:44.679Z,100529.40
2018-03-22T07:03:13.581Z,100529.67
2018-03-22T07:05:42.178Z,100533.20
2018-03-22T07:08:10.784Z,100520.77
2018-03-22T07:10:39.339Z,100538.21
2018-03-22T07:13:08.205Z,100533.03
2018-03-22T07:15:36.684Z,100532.44
2018-03-22T07:18:05.347Z,100527.69
2018-03-22T07:20:33.860Z,100526.23
2018-03-22T07:23:02.744Z,100536.11
2018-03-22T07:25:31.293Z,100526.56
2018-03-22T07:27:59.776Z,100518.22
2018-03-22T07:30:28.312Z,100522.61
2018-03-22T07:32:56.962Z,100522.63
2018-03-22T07:35:25.508Z,100518.39
2018-03-22T07:37:54.397Z,100517.03
2018-03-22T07:40:24.265Z,100514.39
2018-03-22T07:42:58.526Z,100520.92
2018-03-22T07:45:27.246Z,100522.42
2018-03-22T07:47:55.733Z,100514.31
2018-03-22T07:50:24.538Z,100526.01
2018-03-22T07:52:53.222Z,100523.62
2018-03-22T07:55:21.807Z,100525.84
2018-03-22T07:57:50.700Z,100513.80
2018-03-22T08:00:19.691Z,100510.80
2018-03-22T08:02:48.483Z,100523.35
2018-03-22T08:05:17.547Z,100522.92
2018-03-22T08:07:46.395Z,100521.76
2018-03-22T08:10:14.919Z,100512.98
2018-03-22T08:12:44.452Z,100514.87
2018-03-22T08:15:13.086Z,100522.48
2018-03-22T08:17:41.561Z,100511.70
2018-03-22T08:20:09.999Z,100511.41
2018-03-22T08:22:38.608Z,100513.20
2018-03-22T08:25:07.080Z,100511.56
2018-03-22T08:27:35.573Z,100514.55
2018-03-22T08:30:04.207Z,100519.84
2018-03-22T08:32:33.715Z,100515.91
2018-03-22T08:35:03.292Z,100509.48
2018-03-22T08:37:31.807Z,100510.24
2018-03-22T08:40:00.443Z,100516.98
2018-03-22T08:42:28.969Z,100509.48
2018-03-22T08:44:57.644Z,100514.80
2018-03-22T08:47:26.230Z,100520.69
2018-03-22T08:49:54.774Z,100518.90
2018-03-22T08:52:23.421Z,100517.53
2018-03-22T08:54:52.054Z,100518.25
2018-03-22T08:57:20.594Z,100514.09
2018-03-22T08:59:49.426Z,100518.03
2018-03-22T09:02:18.069Z,100508.99
2018-03-22T09:04:46.645Z,100512.92
2018-03-22T09:07:15.297Z,100517.94
2018-03-22T09:09:43.821Z,100518.50
2018-03-22T09:12:13.177Z,100520.55
2018-03-22T09:14:41.709Z,100527.80
2018-03-22T09:17:10.268Z,100528.70
2018-03-22T09:19:38.763Z,100530.53
2018-03-22T09:22:07.347Z,100534.75
2018-03-22T09:24:35.812Z,100537.02
2018-03-22T09:27:06.202Z,100531.63
2018-03-22T09:29:34.712Z,100528.64
2018-03-22T09:32:03.214Z,100530.82
2018-03-22T09:34:31.763Z,100514.11
2018-03-22T09:37:00.242Z,100529.22
2018-03-22T09:39:28.710Z,100527.08
2018-03-22T09:41:57.190Z,100527.28
2018-03-22T09:44:25.727Z,100526.38
2018-03-22T09:46:55.169Z,100534.33
2018-03-22T09:49:23.881Z,100532.30
2018-03-22T09:51:52.649Z,100533.39
2018-03-22T09:54:21.165Z,100533.20
2018-03-22T09:56:49.851Z,100534.58
2018-03-22T09:59:18.557Z,100533.81
2018-03-22T10:01:47.543Z,100536.17
2018-03-22T10:04:18.400Z,100542.02
2018-03-22T10:06:47.583Z,100540.91
2018-03-22T10:09:16.373Z,100541.67
2018-03-22T10:11:45.059Z,100539.73
2018-03-22T10:14:14.054Z,100548.44
2018-03-22T10:16:42.606Z,100547.77
2018-03-22T10:19:11.266Z,100550.65
2018-03-22T10:21:39.972Z,100546.98
2018-03-22T10:24:08.483Z,100550.03
2018-03-22T10:26:37.118Z,100552.72
2018-03-22T10:29:05.672Z,100555.77
2018-03-22T10:31:35.126Z,100561.89
2018-03-22T10:34:03.638Z,100562.63
2018-03-22T10:36:32.171Z,100564.11
2018-03-22T10:39:00.614Z,100566.72
2018-03-22T10:41:29.250Z,100567.95
2018-03-22T10:43:58.002Z,100569.37
2018-03-22T10:46:26.517Z,100567.97
2018-03-22T10:48:55.367Z,100565.48
2018-03-22T10:51:24.252Z,100562.61
2018-03-22T10:53:52.950Z,100564.17
2018-03-22T10:56:21.519Z,100564.65
2018-03-22T10:58:50.334Z,100568.14
2018-03-22T11:01:24.633Z,100574.02
2018-03-22T11:03:54.531Z,100568.33
2018-03-22T11:06:23.181Z,100574.02
2018-03-22T11:08:51.792Z,100579.42
2018-03-22T11:11:20.462Z,100572.34
2018-03-22T11:13:49.212Z,100577.48
2018-03-22T11:16:17.825Z,100579.80
2018-03-22T11:18:50.356Z,100582.26
2018-03-22T11:21:19.282Z,100585.13
2018-03-22T11:23:47.871Z,100578.28
2018-03-22T11:26:16.666Z,100578.19
2018-03-22T11:28:45.372Z,100586.96
2018-03-22T11:31:13.934Z,100592.06
2018-03-22T11:33:42.448Z,100591.76
2018-03-22T11:36:10.930Z,100592.70
2018-03-22T11:38:44.226Z,100597.83
2018-03-22T11:41:15.055Z,100597.66
2018-03-22T11:43:43.752Z,100602.45
2018-03-22T11:46:12.386Z,100599.09
2018-03-22T11:48:40.893Z,100598.73
2018-03-22T11:51:09.433Z,100598.16
2018-03-22T11:53:38.134Z,100597.59
2018-03-22T11:56:06.791Z,100599.77
2018-03-22T11:58:35.454Z,100606.84
2018-03-22T12:01:04.232Z,100608.38
2018-03-22T12:03:32.780Z,100606.13
2018-03-22T12:06:01.470Z,100610.73
2018-03-22T12:08:30.087Z,100609.07
2018-03-22T12:10:58.943Z,100613.33
2018-03-22T12:13:28.689Z,100620.91
2018-03-22T12:15:57.328Z,100618.32
2018-03-22T12:18:25.977Z,100619.78
2018-03-22T12:20:54.625Z,100620.81
2018-03-22T12:23:23.410Z,100617.68
2018-03-22T12:25:52.218Z,100615.47
2018-03-22T12:28:20.899Z,100616.45
2018-03-22T12:30:49.497Z,100612.25
2018-03-22T12:33:18.395Z,100610.33
2018-03-22T12:35:46.984Z,100614.02
2018-03-22T12:38:15.694Z,100622.19
2018-03-22T12:40:44.538Z,100623.95
2018-03-22T12:43:13.097Z,100615.38
2018-03-22T12:45:41.682Z,100621.59
2018-03-22T12:48:10.286Z,100620.11
2018-03-22T12:50:38.867Z,100621.01
2018-03-22T12:53:07.526Z,100620.42
2018-03-22T12:55:36.041Z,100626.43
2018-03-22T12:58:05.154Z,100626.80
2018-03-22T13:00:33.718Z,100623.19
2018-03-22T13:03:02.315Z,100616.87
2018-03-22T13:05:30.863Z,100622.25
2018-03-22T13:07:59.650Z,100614.12
2018-03-22T13:10:28.333Z,100617.73
2018-03-22T13:12:57.062Z,100609.05
2018-03-22T13:15:25.766Z,100612.95
2018-03-22T13:17:55.488Z,100615.61
2018-03-22T13:20:24.441Z,100613.52
2018-03-22T13:22:55.916Z,100595.16
2018-03-22T13:25:25.383Z,100607.77
2018-03-22T13:27:54.167Z,100615.73
2018-03-22T13:30:22.997Z,100610.77
2018-03-22T13:32:51.579Z,100615.50
2018-03-22T13:35:22.175Z,100614.38
2018-03-22T13:37:50.869Z,100605.05
2018-03-22T13:40:19.465Z,100620.70
2018-03-22T13:42:48.130Z,100613.37
2018-03-22T13:45:16.719Z,100608.57
2018-03-22T13:47:45.795Z,100612.14
2018-03-22T13:50:14.748Z,100616.51
2018-03-22T13:52:43.330Z,100616.63
2018-03-22T13:55:11.869Z,100624.17
2018-03-22T13:57:40.332Z,100624.01
2018-03-22T14:00:08.882Z,100624.53
2018-03-22T14:02:38.571Z,100635.11
2018-03-22T14:05:09.022Z,100632.04
2018-03-22T14:07:37.713Z,100636.02
2018-03-22T14:10:06.247Z,100640.89
2018-03-22T14:12:34.776Z,100645.80
2018-03-22T14:15:03.385Z,100635.66
2018-03-22T14:17:31.933Z,100631.56
2018-03-22T14:20:00.656Z,100633.91
2018-03-22T14:22:29.379Z,100641.33
2018-03-22T14:24:58.060Z,100646.22
2018-03-22T14:27:26.765Z,100644.39
2018-03-22T14:29:55.476Z,100641.57
2018-03-22T14:32:24.256Z,100635.02
2018-03-22T14:34:53.006Z,100636.77
2018-03-22T14:37:21.875Z,100642.25
2018-03-22T14:39:50.458Z,100645.33
2018-03-22T14:42:19.269Z,100657.92
2018-03-22T14:44:48.052Z,100648.19
2018-03-22T14:47:16.609Z,100644.24
2018-03-22T14:49:46.126Z,100649.78
2018-03-22T14:52:14.959Z,100657.84
2018-03-22T14:54:43.517Z,100663.20
2018-03-22T14:57:12.093Z,100659.59
2018-03-22T14:59:40.627Z,100663.73
2018-03-22T15:02:09.247Z,100663.17
2018-03-22T15:04:37.727Z,100670.16
2018-03-22T15:07:06.309Z,100661.02
2018-03-22T15:09:34.919Z,100664.39
2018-03-22T15:12:04.235Z,100664.98
2018-03-22T15:14:32.977Z,100660.06
2018-03-22T15:17:01.556Z,100661.78
2018-03-22T15:19:30.371Z,100658.48
2018-03-22T15:21:58.993Z,100646.61
2018-03-22T15:24:27.565Z,100645.77
2018-03-22T15:26:56.115Z,100643.84
2018-03-22T15:29:25.010Z,100642.91
2018-03-22T15:31:53.701Z,100646.31
2018-03-22T15:34:22.489Z,100645.88
2018-03-22T15:36:51.284Z,100656.23
2018-03-22T15:39:19.965Z,100648.23
2018-03-22T15:41:48.471Z,100664.36
2018-03-22T15:44:17.152Z,100650.91
2018-03-22T15:46:45.630Z,100650.95
2018-03-22T15:49:14.296Z,100657.51
2018-03-22T15:51:42.777Z,100650.59
2018-03-22T15:54:11.196Z,100656.05
2018-03-22T15:56:39.746Z,100652.48
2018-03-22T15:59:08.337Z,100651.50
2018-03-22T16:01:36.772Z,100649.59
2018-03-22T16:04:05.224Z,100660.74
2018-03-22T16:06:33.934Z,100667.34
2018-03-22T16:09:02.715Z,100670.94
2018-03-22T16:11:31.173Z,100665.72
2018-03-22T16:13:59.749Z,100665.00
2018-03-22T16:16:28.250Z,100664.34
2018-03-22T16:18:56.957Z,100669.52
2018-03-22T16:21:25.980Z,100670.47
2018-03-22T16:23:54.656Z,100672.69
2018-03-22T16:26:23.151Z,100673.41
2018-03-22T16:28:51.937Z,100683.94
2018-03-22T16:31:20.977Z,100684.30
2018-03-22T16:33:50.059Z,100683.54
2018-03-22T16:36:18.954Z,100671.23
2018-03-22T16:38:47.641Z,100667.05
2018-03-22T16:41:16.338Z,100660.31
2018-03-22T16:43:46.014Z,100662.64
2018-03-22T16:46:15.010Z,100665.47
2018-03-22T16:48:44.517Z,100671.18
2018-03-22T16:51:13.190Z,100664.92
2018-03-22T16:53:41.728Z,100665.16
2018-03-22T16:56:10.353Z,100665.67
2018-03-22T16:58:38.968Z,100669.66
2018-03-22T17:01:07.497Z,100669.94
2018-03-22T17:03:35.972Z,100671.45
2018-03-22T17:06:05.099Z,100672.64
2018-03-22T17:08:44.905Z,100671.17
2018-03-22T17:11:14.215Z,100678.58
2018-03-22T17:13:42.843Z,100680.89
2018-03-22T17:16:11.888Z,100674.73
2018-03-22T17:18:40.505Z,100666.81
2018-03-22T17:21:09.184Z,100668.70
2018-03-22T17:23:37.656Z,100669.93
2018-03-22T17:26:06.233Z,100676.09
2018-03-22T17:28:34.815Z,100675.62
2018-03-22T17:31:03.935Z,100683.45
2018-03-22T17:33:32.598Z,100678.32
2018-03-22T17:36:01.308Z,100675.25
2018-03-22T17:38:29.847Z,100676.29
2018-03-22T17:40:58.393Z,100676.58
2018-03-22T17:43:27.172Z,100679.38
2018-03-22T17:45:55.858Z,100685.52
2018-03-22T17:48:24.965Z,100673.73
2018-03-22T17:50:55.073Z,100673.61
2018-03-22T17:53:23.767Z,100680.41
2018-03-22T17:55:52.671Z,100684.34
2018-03-22T17:58:21.563Z,100687.19
2018-03-22T18:00:50.407Z,100689.45
2018-03-22T18:03:19.027Z,100687.43
2018-03-22T18:05:49.431Z,100685.05
2018-03-22T18:08:18.743Z,100674.72
2018-03-22T18:10:47.609Z,100682.34
2018-03-22T18:13:16.722Z,100682.50
2018-03-22T18:15:46.040Z,100687.05
2018-03-22T18:18:15.827Z,100691.91
2018-03-22T18:20:44.546Z,100692.94
2018-03-22T18:23:13.316Z,100696.25
2018-03-22T18:25:41.862Z,100701.42
2018-03-22T18:28:10.376Z,100705.84
2018-03-22T18:30:38.958Z,100708.17
2018-03-22T18:33:08.259Z,100711.86
2018-03-22T18:35:36.996Z,100706.88
2018-03-22T18:38:05.593Z,100705.93
2018-03-22T18:40:34.243Z,100709.48
2018-03-22T18:43:02.910Z,100702.25
2018-03-22T18:45:31.617Z,100703.33
2018-03-22T18:48:00.855Z,100706.49
2018-03-22T18:50:29.578Z,100709.52
2018-03-22T18:52:58.913Z,100710.65
2018-03-22T18:55:27.659Z,100709.10
2018-03-22T18:57:56.193Z,100709.73
2018-03-22T19:00:25.221Z,100710.91
2018-03-22T19:02:54.867Z,100709.68
2018-03-22T19:05:24.776Z,100712.53
2018-03-22T19:07:53.360Z,100711.44
2018-03-22T19:10:22.568Z,100707.16
2018-03-22T19:12:51.181Z,100718.41
2018-03-22T19:15:19.823Z,100724.20
2018-03-22T19:17:48.478Z,100723.14
2018-03-22T19:20:17.187Z,100722.96
2018-03-22T19:22:46.480Z,100728.20
2018-03-22T19:25:15.067Z,100734.84
2018-03-22T19:27:43.783Z,100730.52
2018-03-22T19:30:12.288Z,100728.02
2018-03-22T19:32:41.574Z,100732.16
2018-03-22T19:35:10.167Z,100737.95
2018-03-22T19:37:38.750Z,100731.17
2018-03-22T19:40:07.487Z,100738.19
2018-03-22T19:42:35.974Z,100732.69
2018-03-22T19:45:04.583Z,100735.90
2018-03-22T19:47:33.137Z,100733.36
2018-03-22T19:50:01.633Z,100736.89
2018-03-22T19:52:30.165Z,100736.34
2018-03-22T19:54:58.784Z,100736.30
2018-03-22T19:57:28.983Z,100736.28
2018-03-22T19:59:57.588Z,100737.25
2018-03-22T20:02:26.724Z,100741.54
2018-03-22T20:04:55.276Z,100740.33
2018-03-22T20:07:23.963Z,100735.63
2018-03-22T20:09:52.949Z,100732.75
2018-03-22T20:12:24.496Z,100741.05
2018-03-22T20:14:53.606Z,100734.55
2018-03-22T20:17:22.402Z,100739.05
2018-03-22T20:19:51.017Z,100738.42
2018-03-22T20:22:20.798Z,100743.25
2018-03-22T20:24:49.580Z,100745.66
2018-03-22T20:27:18.259Z,100742.58
2018-03-22T20:29:47.234Z,100741.41
2018-03-22T20:32:15.831Z,100747.02
2018-03-22T20:34:45.037Z,100734.39
2018-03-22T20:37:14.397Z,100741.34
2018-03-22T20:39:43.128Z,100744.88
2018-03-22T20:42:11.691Z,100752.69
2018-03-22T20:44:40.175Z,100761.50
2018-03-22T20:47:08.717Z,100754.09
2018-03-22T20:49:37.612Z,100753.84
2018-03-22T20:52:06.243Z,100750.55
2018-03-22T20:54:34.834Z,100757.06
2018-03-22T20:57:03.309Z,100747.95
2018-03-22T20:59:32.422Z,100746.25
2018-03-22T21:02:01.671Z,100753.09
2018-03-22T21:04:30.238Z,100748.17
2018-03-22T21:06:58.924Z,100755.31
2018-03-22T21:09:27.525Z,100754.59
2018-03-22T21:11:56.352Z,100755.48
2018-03-22T21:14:25.062Z,100756.55
2018-03-22T21:16:54.047Z,100761.08
2018-03-22T21:19:23.084Z,100767.56
2018-03-22T21:21:51.727Z,100767.73
2018-03-22T21:24:23.559Z,100760.77
2018-03-22T21:26:52.740Z,100760.25
2018-03-22T21:29:21.360Z,100758.79
2018-03-22T21:31:50.039Z,100761.98
2018-03-22T21:34:18.994Z,100754.12
2018-03-22T21:36:51.414Z,100761.18
2018-03-22T21:39:21.727Z,100757.75
2018-03-22T21:42:02.112Z,100751.59
2018-03-22T21:44:30.626Z,100756.63
2018-03-22T21:47:10.953Z,100755.73
2018-03-22T21:49:39.583Z,100756.28
2018-03-22T21:52:19.806Z,100757.57
2018-03-22T21:54:48.411Z,100759.47
2018-03-22T21:57:17.108Z,100756.69
2018-03-22T21:59:45.873Z,100747.98
2018-03-22T22:04:51.753Z,100743.32
2018-03-22T22:07:20.599Z,100739.47
2018-03-22T22:09:49.283Z,100727.89
2018-03-22T22:15:14.367Z,100736.44
2018-03-22T22:17:43.035Z,100726.44
2018-03-22T22:20:11.518Z,100730.80
2018-03-22T22:22:40.042Z,100729.29
2018-03-22T22:25:08.639Z,100723.28
2018-03-22T22:27:37.586Z,100722.84
2018-03-22T22:30:06.104Z,100729.08
2018-03-22T22:32:34.636Z,100722.77
2018-03-22T22:35:03.165Z,100724.00
2018-03-22T22:37:31.647Z,100721.91
2018-03-22T22:40:00.190Z,100717.05
2018-03-22T22:42:28.894Z,100703.28
2018-03-22T22:44:57.478Z,100695.02
2018-03-22T22:47:25.988Z,100699.34
2018-03-22T22:49:54.527Z,100694.17
2018-03-22T22:52:23.210Z,100696.20
2018-03-22T22:54:52.018Z,100696.16
2018-03-22T22:57:20.526Z,100690.59
2018-03-22T22:59:49.065Z,100700.84
2018-03-22T23:02:17.750Z,100699.35
2018-03-22T23:04:46.379Z,100699.62
2018-03-22T23:07:14.961Z,100692.41
2018-03-22T23:09:43.495Z,100702.61
2018-03-22T23:12:12.072Z,100701.47
2018-03-22T23:14:40.558Z,100700.39
2018-03-22T23:17:09.198Z,100700.35
2018-03-22T23:19:38.908Z,100695.81
2018-03-22T23:22:07.437Z,100701.87
2018-03-22T23:24:36.081Z,100694.18
2018-03-22T23:27:04.702Z,100691.92
2018-03-22T23:29:33.277Z,100698.19
2018-03-22T23:32:01.969Z,100704.11
2018-03-22T23:34:30.406Z,100691.20
2018-03-22T23:36:58.879Z,100692.13
2018-03-22T23:39:27.423Z,100695.20
2018-03-22T23:41:56.009Z,100699.22
2018-03-22T23:44:24.673Z,100687.98
2018-03-22T23:46:53.265Z,100689.38
2018-03-22T23:49:21.807Z,100678.99
2018-03-22T23:51:50.463Z,100679.77
2018-03-22T23:54:18.991Z,100679.38
2018-03-22T23:56:47.559Z,100673.91
2018-03-22T23:59:16.051Z,100686.97
